METAR Reports From Nearby Airports

 

KLUD - Decatur, Texas, USA
Distance from Wildwood: ESE 5mi, 8km
Updated: Nov 12, 2019 5:35am
Clear
Clear
 Wind from NNW
Wind: NNW 9 mph , 15 km/h
Temperature: 19°F , -7°C
Wind Chill: 8°F , -13°C
Dew Point: 9°F , -13°C
Humidity: 63%
Barometer: 30.63 inHg , 1037.3 hPa
Clouds: Clear
Visibility: 10 miles , 16 km
2019/11/12 11:35 KLUD 121135Z AUTO 34008KT 10SM CLR M07/M13 A3063 RMK AO2 T10671130
KXBP - Bridgeport, Texas, USA
Distance from Wildwood: WSW 11mi, 18km
Updated: Nov 12, 2019 5:35am
Clear
Clear
 Wind from N
Wind: N 13 mph , 20 km/h, Gust: 18 mph , 30 km/h
Temperature: 21°F , -6°C
Wind Chill: 8°F , -13°C
Dew Point: 10°F , -12°C
Humidity: 63%
Barometer: 30.68 inHg , 1038.9 hPa
Clouds: Clear
Visibility: 10 miles , 16 km
2019/11/12 11:35 KXBP 121135Z AUTO 35011G16KT 10SM CLR M06/M12 A3068 RMK AO2 T10571117
 
K0F2 - Bowie, Texas, USA
Distance from Wildwood: NNW 24mi, 39km
Updated: Nov 12, 2019 5:35am
Clear
Clear
 Wind from N
Wind: N 10 mph , 17 km/h
Temperature: 21°F , -6°C
Wind Chill: 10°F , -12°C
Dew Point: 14°F , -10°C
Humidity: 74%
Barometer: 30.65 inHg , 1037.9 hPa
Clouds: Clear
Visibility: 10 miles , 16 km
2019/11/12 11:35 K0F2 121135Z AUTO 35009KT 10SM CLR M06/M10 A3065 RMK AO2 T10601101
KDTO - Denton, Texas, USA
Distance from Wildwood: E 27mi, 44km
Updated: Nov 12, 2019 4:53am
Clear
Clear
 Wind from N
Wind: N 16 mph , 26 km/h
Temperature: 21°F , -6°C
Wind Chill: 7°F , -14°C
Dew Point: 10°F , -12°C
Humidity: 63%
Barometer: 30.65 inHg , 1037.9 hPa
Clouds: Clear
Visibility: 10 miles , 16 km
2019/11/12 10:53 KDTO 121053Z AUTO 35014KT 10SM CLR M06/M12 A3065 RMK AO2 SLP385 T10561117
 
KAFW - Ft Worth/Allianc, Texas, USA
Distance from Wildwood: SE 29mi, 46km
Updated: Nov 12, 2019 4:53am
Partly Cloudy
Partly Cloudy
 Wind from N
Wind: N 17 mph , 28 km/h
Temperature: 23°F , -5°C
Wind Chill: 9°F , -13°C
Dew Point: 10°F , -12°C
Humidity: 58%
Barometer: 30.63 inHg , 1037.3 hPa
Clouds: Partly Cloudy
Visibility: 10 miles , 16 km
Cloud details: Few Clouds 25000 ft
Partly Cloudy 30000 ft
2019/11/12 10:53 KAFW 121053Z 36015KT 10SM FEW250 SCT300 M05/M12 A3063 RMK AO2 SLP388 T10501117
KFTW - Fort Worth, Texas, USA
Distance from Wildwood: SSE 34mi, 55km
Updated: Nov 12, 2019 4:53am
Clear
Clear
 Wind from N
Wind: N 15 mph , 24 km/h, Gust: 26 mph , 43 km/h
Temperature: 21°F , -6°C
Wind Chill: 7°F , -14°C
Dew Point: 10°F , -12°C
Humidity: 63%
Barometer: 30.63 inHg , 1037.3 hPa
Clouds: Clear
Visibility: 10 miles , 16 km
2019/11/12 10:53 KFTW 121053Z 35013G23KT 10SM CLR M06/M12 A3063 RMK AO2 PK WND 35029/0954 SLP380 T10561117
 
KNFW - Fort Worth Nas, Texas, USA
Distance from Wildwood: SSE 36mi, 58km
Updated: Nov 12, 2019 4:52am
Light snow, Clear
Light snow, Clear
 Wind from N
Wind: N 16 mph , 26 km/h, Gust: 23 mph , 37 km/h
Temperature: 30°F , -1°C
Wind Chill: 19°F , -7°C
Dew Point: 12°F , -11°C
Humidity: 47%
Barometer: 30.66 inHg , 1038.3 hPa
Summary: Light Snow
Clouds: Clear
Visibility: 9 miles , 14 km
2019/11/12 10:52 KNFW 121052Z AUTO 35014G20KT 9SM -SN CLR M01/M11 A3066 RMK AO2 SLP361 P0000 T10111106 CHINO N VISNO N $
KGLE - Gainesville, Texas, USA
Distance from Wildwood: NE 38mi, 61km
Updated: Nov 04, 2019 8:15am
NOT Current

 Wind from S
Wind: S 13 mph , 20 km/h, Gust: 18 mph , 30 km/h
Temperature: 54°F , 12°C
Dew Point: 50°F , 10°C
Humidity: 88%
Barometer: 30.00 inHg , 1015.9 hPa
Visibility: 10 miles , 16 km
2019/11/04 14:15 KGLE 041415Z AUTO 17011G16KT 10SM 12/10 A3000 RMK AO2 T01170100
 
KMWL - Mineral Wells, Texas, USA
Distance from Wildwood: SW 41mi, 65km
Updated: Nov 12, 2019 4:53am
Clear
Clear
 Wind from N
Wind: N 14 mph , 22 km/h
Temperature: 21°F , -6°C
Wind Chill: 8°F , -13°C
Dew Point: 9°F , -13°C
Humidity: 58%
Barometer: 30.64 inHg , 1037.6 hPa
Clouds: Clear
Visibility: 10 miles , 16 km
2019/11/12 10:53 KMWL 121053Z AUTO 35012KT 10SM CLR M06/M13 A3064 RMK AO2 SLP384 T10611128
KDFW - Dallas/Ft Worth, Texas, USA
Distance from Wildwood: ESE 45mi, 73km
Updated: Nov 12, 2019 4:53am
Few Clouds
Few Clouds
 Wind from N
Wind: N 16 mph , 26 km/h
Temperature: 23°F , -5°C
Wind Chill: 10°F , -12°C
Dew Point: 12°F , -11°C
Humidity: 63%
Barometer: 30.60 inHg , 1036.2 hPa
Clouds: Few Clouds
Visibility: 10 miles , 16 km
Cloud details: Few Clouds 30000 ft
2019/11/12 10:53 KDFW 121053Z 35014KT 10SM FEW300 M05/M11 A3060 RMK AO2 PK WND 36026/1016 SLP368 T10501111 $